sensor_id;sensor_type;location;lat;lon;timestamp;pressure;altitude;pressure_sealevel;temperature;humidity
65227;BME280;51805;49.012;12.104;2024-03-23T00:54:20;97175.34;;;20.81;61.81
65227;BME280;51805;49.012;12.104;2024-03-23T00:56:45;97171.56;;;20.82;61.68
65227;BME280;51805;49.012;12.104;2024-03-23T00:59:10;97171.03;;;20.80;61.96
65227;BME280;51805;49.012;12.104;2024-03-23T01:01:36;97160.78;;;20.82;62.19
65227;BME280;51805;49.012;12.104;2024-03-23T01:04:02;97160.53;;;20.78;62.06
65227;BME280;51805;49.012;12.104;2024-03-23T01:06:27;97159.13;;;20.81;62.08
65227;BME280;51805;49.012;12.104;2024-03-23T01:08:53;97164.81;;;20.79;62.46
65227;BME280;51805;49.012;12.104;2024-03-23T01:11:18;97155.13;;;20.78;62.48
65227;BME280;51805;49.012;12.104;2024-03-23T01:13:43;97148.91;;;20.78;62.18
65227;BME280;51805;49.012;12.104;2024-03-23T01:16:09;97150.84;;;20.77;62.15
65227;BME280;51805;49.012;12.104;2024-03-23T01:18:34;97155.13;;;20.78;62.35
65227;BME280;51805;49.012;12.104;2024-03-23T01:20:59;97153.25;;;20.79;62.75
65227;BME280;51805;49.012;12.104;2024-03-23T01:23:24;97154.31;;;20.78;62.46
65227;BME280;51805;49.012;12.104;2024-03-23T01:25:54;97154.31;;;20.78;62.82
65227;BME280;51805;49.012;12.104;2024-03-23T01:28:20;97143.50;;;20.78;62.31
65227;BME280;51805;49.012;12.104;2024-03-23T01:30:45;97140.03;;;20.77;62.49
65227;BME280;51805;49.012;12.104;2024-03-23T01:33:11;97132.72;;;20.78;62.45
65227;BME280;51805;49.012;12.104;2024-03-23T01:35:36;97131.13;;;20.77;62.33
65227;BME280;51805;49.012;12.104;2024-03-23T01:38:02;97124.13;;;20.76;62.32
65227;BME280;51805;49.012;12.104;2024-03-23T01:40:27;97113.31;;;20.76;62.39
65227;BME280;51805;49.012;12.104;2024-03-23T01:42:58;97106.88;;;20.72;62.58
65227;BME280;51805;49.012;12.104;2024-03-23T01:45:26;97111.69;;;20.75;62.67
65227;BME280;51805;49.012;12.104;2024-03-23T01:47:52;97105.47;;;20.74;62.19
65227;BME280;51805;49.012;12.104;2024-03-23T01:50:17;97097.66;;;20.73;62.55
65227;BME280;51805;49.012;12.104;2024-03-23T01:52:43;97097.66;;;20.73;62.79
65227;BME280;51805;49.012;12.104;2024-03-23T01:55:08;97093.06;;;20.73;62.50
65227;BME280;51805;49.012;12.104;2024-03-23T01:57:34;97084.16;;;20.73;62.38
65227;BME280;51805;49.012;12.104;2024-03-23T01:59:59;97075.84;;;20.69;62.28
65227;BME280;51805;49.012;12.104;2024-03-23T02:02:25;97087.97;;;20.72;61.55
65227;BME280;51805;49.012;12.104;2024-03-23T02:04:50;97081.75;;;20.71;62.51
65227;BME280;51805;49.012;12.104;2024-03-23T02:07:15;97078.28;;;20.71;62.16
65227;BME280;51805;49.012;12.104;2024-03-23T02:09:41;97067.47;;;20.71;62.05
65227;BME280;51805;49.012;12.104;2024-03-23T02:12:06;97068.53;;;20.70;62.43
65227;BME280;51805;49.012;12.104;2024-03-23T02:14:32;97064.25;;;20.69;62.83
65227;BME280;51805;49.012;12.104;2024-03-23T02:16:57;97056.44;;;20.67;63.02
65227;BME280;51805;49.012;12.104;2024-03-23T02:19:22;97060.44;;;20.70;62.64
65227;BME280;51805;49.012;12.104;2024-03-23T02:21:48;97054.25;;;20.69;62.15
65227;BME280;51805;49.012;12.104;2024-03-23T02:24:13;97059.94;;;20.68;62.91
65227;BME280;51805;49.012;12.104;2024-03-23T02:26:38;97057.75;;;20.70;62.53
65227;BME280;51805;49.012;12.104;2024-03-23T02:29:03;97046.44;;;20.68;62.65
65227;BME280;51805;49.012;12.104;2024-03-23T02:31:29;97047.75;;;20.70;62.54
65227;BME280;51805;49.012;12.104;2024-03-23T02:33:54;97046.94;;;20.70;62.81
65227;BME280;51805;49.012;12.104;2024-03-23T02:36:19;97046.44;;;20.68;63.05
65227;BME280;51805;49.012;12.104;2024-03-23T02:38:45;97045.63;;;20.67;63.00
65227;BME280;51805;49.012;12.104;2024-03-23T02:41:10;97035.13;;;20.66;63.34
65227;BME280;51805;49.012;12.104;2024-03-23T02:43:35;97024.91;;;20.63;62.85
65227;BME280;51805;49.012;12.104;2024-03-23T02:46:00;97030.84;;;20.65;62.70
65227;BME280;51805;49.012;12.104;2024-03-23T02:48:26;97027.63;;;20.63;62.74
65227;BME280;51805;49.012;12.104;2024-03-23T02:50:51;97031.91;;;20.64;62.96
65227;BME280;51805;49.012;12.104;2024-03-23T02:53:16;97031.63;;;20.65;62.82
65227;BME280;51805;49.012;12.104;2024-03-23T02:55:41;97032.72;;;20.64;62.61
65227;BME280;51805;49.012;12.104;2024-03-23T02:58:07;97026.78;;;20.62;62.91
65227;BME280;51805;49.012;12.104;2024-03-23T03:00:32;97027.56;;;20.68;62.81
65227;BME280;51805;49.012;12.104;2024-03-23T03:02:57;97019.75;;;20.66;62.91
65227;BME280;51805;49.012;12.104;2024-03-23T03:05:23;97017.34;;;20.65;62.71
65227;BME280;51805;49.012;12.104;2024-03-23T03:07:48;97021.09;;;20.64;62.85
65227;BME280;51805;49.012;12.104;2024-03-23T03:10:13;97015.72;;;20.64;62.65
65227;BME280;51805;49.012;12.104;2024-03-23T03:12:39;97030.03;;;20.64;62.82
65227;BME280;51805;49.012;12.104;2024-03-23T03:15:04;97006.81;;;20.63;62.90
65227;BME280;51805;49.012;12.104;2024-03-23T03:17:30;97005.44;;;20.66;62.52
65227;BME280;51805;49.012;12.104;2024-03-23T03:19:56;96998.44;;;20.65;62.82
65227;BME280;51805;49.012;12.104;2024-03-23T03:22:22;96988.72;;;20.64;62.78
65227;BME280;51805;49.012;12.104;2024-03-23T03:24:47;96985.22;;;20.63;62.84
65227;BME280;51805;49.012;12.104;2024-03-23T03:27:12;96982.81;;;20.62;62.85
65227;BME280;51805;49.012;12.104;2024-03-23T03:29:38;96974.72;;;20.62;62.93
65227;BME280;51805;49.012;12.104;2024-03-23T03:32:03;96972.50;;;20.64;63.08
65227;BME280;51805;49.012;12.104;2024-03-23T03:34:28;96969.03;;;20.63;62.99
65227;BME280;51805;49.012;12.104;2024-03-23T03:36:54;96967.69;;;20.61;63.06
65227;BME280;51805;49.012;12.104;2024-03-23T03:39:19;96971.22;;;20.61;62.56
65227;BME280;51805;49.012;12.104;2024-03-23T03:41:44;96977.44;;;20.62;62.99
65227;BME280;51805;49.012;12.104;2024-03-23T03:44:09;96976.31;;;20.63;63.11
65227;BME280;51805;49.012;12.104;2024-03-23T03:46:35;96965.00;;;20.61;62.64
65227;BME280;51805;49.012;12.104;2024-03-23T03:49:00;96956.13;;;20.60;62.70
65227;BME280;51805;49.012;12.104;2024-03-23T03:51:25;96948.81;;;20.61;62.85
65227;BME280;51805;49.012;12.104;2024-03-23T03:53:50;96953.13;;;20.62;62.97
65227;BME280;51805;49.012;12.104;2024-03-23T03:56:16;96950.44;;;20.62;62.91
65227;BME280;51805;49.012;12.104;2024-03-23T03:58:41;96953.13;;;20.62;62.83
65227;BME280;51805;49.012;12.104;2024-03-23T04:01:06;96950.44;;;20.62;62.62
65227;BME280;51805;49.012;12.104;2024-03-23T04:03:32;96954.72;;;20.63;62.96
65227;BME280;51805;49.012;12.104;2024-03-23T04:05:57;96945.03;;;20.62;62.80
65227;BME280;51805;49.012;12.104;2024-03-23T04:08:23;96940.72;;;20.61;62.17
65227;BME280;51805;49.012;12.104;2024-03-23T04:10:49;96925.63;;;20.60;62.71
65227;BME280;51805;49.012;12.104;2024-03-23T04:13:14;96917.81;;;20.58;63.15
65227;BME280;51805;49.012;12.104;2024-03-23T04:15:40;96920.22;;;20.60;62.71
65227;BME280;51805;49.012;12.104;2024-03-23T04:18:05;96926.13;;;20.62;62.67
65227;BME280;51805;49.012;12.104;2024-03-23T04:20:31;96922.97;;;20.73;62.26
65227;BME280;51805;49.012;12.104;2024-03-23T04:22:56;96914.31;;;20.76;62.19
65227;BME280;51805;49.012;12.104;2024-03-23T04:25:21;96911.59;;;20.76;61.50
65227;BME280;51805;49.012;12.104;2024-03-23T04:27:47;96911.00;;;20.79;61.87
65227;BME280;51805;49.012;12.104;2024-03-23T04:30:12;96906.94;;;20.82;61.55
65227;BME280;51805;49.012;12.104;2024-03-23T04:32:38;96908.03;;;20.81;62.09
65227;BME280;51805;49.012;12.104;2024-03-23T04:35:04;96902.72;;;20.76;62.39
65227;BME280;51805;49.012;12.104;2024-03-23T04:37:29;96901.38;;;20.73;62.17
65227;BME280;51805;49.012;12.104;2024-03-23T04:39:54;96886.06;;;20.69;62.46
65227;BME280;51805;49.012;12.104;2024-03-23T04:42:20;96891.47;;;20.69;62.56
65227;BME280;51805;49.012;12.104;2024-03-23T04:44:45;96882.84;;;20.67;62.21
65227;BME280;51805;49.012;12.104;2024-03-23T04:47:10;96884.09;;;20.74;61.74
65227;BME280;51805;49.012;12.104;2024-03-23T04:49:36;96879.72;;;20.78;61.75
65227;BME280;51805;49.012;12.104;2024-03-23T04:52:01;96870.72;;;20.83;61.35
65227;BME280;51805;49.012;12.104;2024-03-23T04:54:26;96874.16;;;20.88;61.19
65227;BME280;51805;49.012;12.104;2024-03-23T04:56:51;96873.25;;;20.93;61.31
65227;BME280;51805;49.012;12.104;2024-03-23T04:59:17;96879.19;;;20.95;61.27
65227;BME280;51805;49.012;12.104;2024-03-23T05:01:42;96869.47;;;20.94;61.23
65227;BME280;51805;49.012;12.104;2024-03-23T05:04:08;96858.69;;;20.94;61.29
65227;BME280;51805;49.012;12.104;2024-03-23T05:06:33;96855.41;;;20.97;61.20
65227;BME280;51805;49.012;12.104;2024-03-23T05:08:59;96854.88;;;20.95;61.32
65227;BME280;51805;49.012;12.104;2024-03-23T05:11:24;96846.75;;;20.95;60.97
65227;BME280;51805;49.012;12.104;2024-03-23T05:13:49;96848.94;;;20.93;61.00
65227;BME280;51805;49.012;12.104;2024-03-23T05:16:14;96855.16;;;20.93;60.88
65227;BME280;51805;49.012;12.104;2024-03-23T05:18:40;96843.56;;;20.93;61.06
65227;BME280;51805;49.012;12.104;2024-03-23T05:21:05;96842.78;;;20.92;61.54
65227;BME280;51805;49.012;12.104;2024-03-23T05:23:30;96842.22;;;20.95;60.96
65227;BME280;51805;49.012;12.104;2024-03-23T05:25:55;96842.22;;;20.95;61.25
65227;BME280;51805;49.012;12.104;2024-03-23T05:28:21;96833.84;;;20.92;61.64
65227;BME280;51805;49.012;12.104;2024-03-23T05:30:53;96837.06;;;20.94;61.26
65227;BME280;51805;49.012;12.104;2024-03-23T05:33:19;96842.44;;;20.99;60.91
65227;BME280;51805;49.012;12.104;2024-03-23T05:35:45;96847.31;;;20.97;61.10
65227;BME280;51805;49.012;12.104;2024-03-23T05:38:10;96837.03;;;20.99;60.97
65227;BME280;51805;49.012;12.104;2024-03-23T05:40:36;96827.81;;;21.00;60.87
65227;BME280;51805;49.012;12.104;2024-03-23T05:43:01;96827.00;;;20.99;61.00
65227;BME280;51805;49.012;12.104;2024-03-23T05:45:26;96838.03;;;21.03;60.59
65227;BME280;51805;49.012;12.104;2024-03-23T05:47:51;96832.09;;;21.01;60.77
65227;BME280;51805;49.012;12.104;2024-03-23T05:50:17;96832.91;;;21.01;60.75
65227;BME280;51805;49.012;12.104;2024-03-23T05:52:42;96814.81;;;21.02;60.75
65227;BME280;51805;49.012;12.104;2024-03-23T05:55:07;96804.81;;;21.02;60.84
65227;BME280;51805;49.012;12.104;2024-03-23T05:57:33;96807.81;;;21.01;60.66
65227;BME280;51805;49.012;12.104;2024-03-23T05:59:58;96813.41;;;21.04;60.88
65227;BME280;51805;49.012;12.104;2024-03-23T06:02:24;96788.91;;;21.01;60.67
65227;BME280;51805;49.012;12.104;2024-03-23T06:04:49;96798.03;;;21.05;60.71
65227;BME280;51805;49.012;12.104;2024-03-23T06:07:15;96800.44;;;21.06;60.86
65227;BME280;51805;49.012;12.104;2024-03-23T06:09:41;96784.81;;;21.03;60.61
65227;BME280;51805;49.012;12.104;2024-03-23T06:12:06;96792.03;;;21.08;60.49
65227;BME280;51805;49.012;12.104;2024-03-23T06:14:32;96777.41;;;21.09;60.41
65227;BME280;51805;49.012;12.104;2024-03-23T06:16:57;96772.81;;;21.09;60.71
65227;BME280;51805;49.012;12.104;2024-03-23T06:19:22;96766.59;;;21.09;60.66
65227;BME280;51805;49.012;12.104;2024-03-23T06:21:48;96765.00;;;21.08;60.55
65227;BME280;51805;49.012;12.104;2024-03-23T06:24:13;96759.00;;;21.11;60.68
65227;BME280;51805;49.012;12.104;2024-03-23T06:26:38;96741.41;;;21.13;60.32
65227;BME280;51805;49.012;12.104;2024-03-23T06:29:04;96740.78;;;21.16;60.34
65227;BME280;51805;49.012;12.104;2024-03-23T06:31:31;96730.88;;;21.12;61.07
65227;BME280;51805;49.012;12.104;2024-03-23T06:33:57;96727.69;;;21.10;61.30
65227;BME280;51805;49.012;12.104;2024-03-23T06:36:23;96736.00;;;21.13;61.02
65227;BME280;51805;49.012;12.104;2024-03-23T06:38:48;96728.09;;;21.17;61.11
65227;BME280;51805;49.012;12.104;2024-03-23T06:41:13;96724.28;;;21.18;60.73
65227;BME280;51805;49.012;12.104;2024-03-23T06:43:39;96733.72;;;21.20;60.54
65227;BME280;51805;49.012;12.104;2024-03-23T06:46:04;96726.38;;;21.21;60.92
65227;BME280;51805;49.012;12.104;2024-03-23T06:48:29;96725.59;;;21.20;61.04
65227;BME280;51805;49.012;12.104;2024-03-23T06:50:56;96725.00;;;21.23;61.21
65227;BME280;51805;49.012;12.104;2024-03-23T06:53:21;96719.41;;;21.20;60.95
65227;BME280;51805;49.012;12.104;2024-03-23T06:55:53;96732.31;;;21.23;60.73
65227;BME280;51805;49.012;12.104;2024-03-23T06:58:23;96730.59;;;21.27;60.79
65227;BME280;51805;49.012;12.104;2024-03-23T07:00:49;96733.59;;;21.25;60.79
65227;BME280;51805;49.012;12.104;2024-03-23T07:03:14;96739.81;;;21.26;60.49
65227;BME280;51805;49.012;12.104;2024-03-23T07:05:40;96738.22;;;21.25;61.35
65227;BME280;51805;49.012;12.104;2024-03-23T07:08:05;96737.19;;;21.21;60.88
65227;BME280;51805;49.012;12.104;2024-03-23T07:10:30;96726.09;;;21.22;60.43
65227;BME280;51805;49.012;12.104;2024-03-23T07:12:56;96734.91;;;21.28;60.48
65227;BME280;51805;49.012;12.104;2024-03-23T07:15:21;96723.38;;;21.22;60.34
65227;BME280;51805;49.012;12.104;2024-03-23T07:17:49;96728.19;;;21.25;60.43
65227;BME280;51805;49.012;12.104;2024-03-23T07:20:15;96728.41;;;21.29;60.07
65227;BME280;51805;49.012;12.104;2024-03-23T07:22:40;96730.28;;;21.28;60.19
65227;BME280;51805;49.012;12.104;2024-03-23T07:25:06;96729.50;;;21.28;60.29
65227;BME280;51805;49.012;12.104;2024-03-23T07:27:31;96733.00;;;21.28;60.32
65227;BME280;51805;49.012;12.104;2024-03-23T07:29:56;96733.00;;;21.15;60.61
65227;BME280;51805;49.012;12.104;2024-03-23T07:32:22;96748.38;;;21.14;60.90
65227;BME280;51805;49.012;12.104;2024-03-23T07:34:47;96747.53;;;21.19;60.27
65227;BME280;51805;49.012;12.104;2024-03-23T07:37:13;96750.41;;;21.09;60.96
65227;BME280;51805;49.012;12.104;2024-03-23T07:39:39;96755.00;;;21.08;61.10
65227;BME280;51805;49.012;12.104;2024-03-23T07:42:04;96756.00;;;20.99;61.01
65227;BME280;51805;49.012;12.104;2024-03-23T07:44:30;96770.50;;;21.03;60.95
65227;BME280;51805;49.012;12.104;2024-03-23T07:46:55;96785.59;;;21.04;61.24
65227;BME280;51805;49.012;12.104;2024-03-23T07:49:20;96766.03;;;20.93;60.83
65227;BME280;51805;49.012;12.104;2024-03-23T07:51:46;96794.59;;;20.99;60.74
65227;BME280;51805;49.012;12.104;2024-03-23T07:54:11;96810.16;;;20.89;60.74
65227;BME280;51805;49.012;12.104;2024-03-23T07:56:36;96846.44;;;21.01;61.01
65227;BME280;51805;49.012;12.104;2024-03-23T07:59:01;96840.31;;;20.96;61.11
65227;BME280;51805;49.012;12.104;2024-03-23T08:01:27;96851.00;;;21.01;61.35
65227;BME280;51805;49.012;12.104;2024-03-23T08:03:52;96855.22;;;21.07;62.12
65227;BME280;51805;49.012;12.104;2024-03-23T08:06:19;96843.94;;;21.05;61.81
65227;BME280;51805;49.012;12.104;2024-03-23T08:08:47;96852.81;;;21.05;62.74
65227;BME280;51805;49.012;12.104;2024-03-23T08:11:13;96868.66;;;21.12;62.76
65227;BME280;51805;49.012;12.104;2024-03-23T08:13:39;96867.66;;;21.08;63.76
65227;BME280;51805;49.012;12.104;2024-03-23T08:16:05;96844.63;;;20.97;63.88
65227;BME280;51805;49.012;12.104;2024-03-23T08:18:30;96857.44;;;21.05;63.17
65227;BME280;51805;49.012;12.104;2024-03-23T08:20:59;96874.25;;;21.02;63.61
65227;BME280;51805;49.012;12.104;2024-03-23T08:23:25;96878.53;;;21.03;63.29
65227;BME280;51805;49.012;12.104;2024-03-23T08:25:51;96866.22;;;20.97;63.50
65227;BME280;51805;49.012;12.104;2024-03-23T08:28:18;96859.47;;;20.94;63.29
65227;BME280;51805;49.012;12.104;2024-03-23T08:30:44;96851.47;;;20.89;63.12
65227;BME280;51805;49.012;12.104;2024-03-23T08:33:09;96849.34;;;20.86;62.69
65227;BME280;51805;49.012;12.104;2024-03-23T08:35:34;96873.84;;;20.90;62.29
65227;BME280;51805;49.012;12.104;2024-03-23T08:37:59;96884.34;;;20.91;61.65
65227;BME280;51805;49.012;12.104;2024-03-23T08:40:25;96871.75;;;20.87;61.52
65227;BME280;51805;49.012;12.104;2024-03-23T08:42:52;96881.16;;;20.89;61.05
65227;BME280;51805;49.012;12.104;2024-03-23T08:45:18;96888.16;;;20.90;61.08
65227;BME280;51805;49.012;12.104;2024-03-23T08:47:43;96871.56;;;20.83;60.87
65227;BME280;51805;49.012;12.104;2024-03-23T08:50:08;96891.16;;;20.89;60.85
65227;BME280;51805;49.012;12.104;2024-03-23T08:52:34;96895.75;;;20.88;60.92
65227;BME280;51805;49.012;12.104;2024-03-23T08:54:59;96896.63;;;20.84;60.68
65227;BME280;51805;49.012;12.104;2024-03-23T08:57:24;96897.66;;;20.88;61.01
65227;BME280;51805;49.012;12.104;2024-03-23T08:59:50;96886.66;;;20.84;60.61
65227;BME280;51805;49.012;12.104;2024-03-23T09:02:15;96894.97;;;20.88;60.48
65227;BME280;51805;49.012;12.104;2024-03-23T09:04:40;96902.44;;;20.96;60.23
65227;BME280;51805;49.012;12.104;2024-03-23T09:07:06;96905.63;;;20.98;60.23
65227;BME280;51805;49.012;12.104;2024-03-23T09:09:34;96895.38;;;20.95;60.02
65227;BME280;51805;49.012;12.104;2024-03-23T09:11:59;96903.78;;;20.93;59.96
65227;BME280;51805;49.012;12.104;2024-03-23T09:14:24;96898.03;;;21.00;59.83
65227;BME280;51805;49.012;12.104;2024-03-23T09:16:50;96914.19;;;21.05;59.58
65227;BME280;51805;49.012;12.104;2024-03-23T09:19:17;96927.16;;;21.03;59.36
65227;BME280;51805;49.012;12.104;2024-03-23T09:21:42;96936.28;;;21.07;59.24
65227;BME280;51805;49.012;12.104;2024-03-23T09:24:08;96937.38;;;21.06;59.20
65227;BME280;51805;49.012;12.104;2024-03-23T09:26:33;96926.56;;;21.06;59.10
65227;BME280;51805;49.012;12.104;2024-03-23T09:28:58;96939.50;;;21.09;59.31
65227;BME280;51805;49.012;12.104;2024-03-23T09:31:24;96922.66;;;20.98;59.01
65227;BME280;51805;49.012;12.104;2024-03-23T09:33:49;96929.28;;;21.06;58.93
65227;BME280;51805;49.012;12.104;2024-03-23T09:36:14;96915.69;;;21.11;58.92
65227;BME280;51805;49.012;12.104;2024-03-23T09:38:41;96920.50;;;21.14;58.70
65227;BME280;51805;49.012;12.104;2024-03-23T09:41:09;96917.81;;;21.14;58.63
65227;BME280;51805;49.012;12.104;2024-03-23T09:43:35;96915.69;;;21.11;58.72
65227;BME280;51805;49.012;12.104;2024-03-23T09:46:04;96915.09;;;21.14;58.51
65227;BME280;51805;49.012;12.104;2024-03-23T09:48:29;96953.16;;;21.17;58.46
65227;BME280;51805;49.012;12.104;2024-03-23T09:50:54;96915.88;;;21.14;58.48
65227;BME280;51805;49.012;12.104;2024-03-23T09:53:20;96909.09;;;21.17;58.48
65227;BME280;51805;49.012;12.104;2024-03-23T09:55:45;96924.72;;;21.20;58.20
65227;BME280;51805;49.012;12.104;2024-03-23T09:58:15;96926.91;;;21.18;58.01
65227;BME280;51805;49.012;12.104;2024-03-23T10:00:41;96927.72;;;21.18;57.90
65227;BME280;51805;49.012;12.104;2024-03-23T10:03:06;96941.53;;;21.17;58.19
65227;BME280;51805;49.012;12.104;2024-03-23T10:05:32;96923.44;;;21.17;58.11
65227;BME280;51805;49.012;12.104;2024-03-23T10:07:58;96956.16;;;21.16;58.12
65227;BME280;51805;49.012;12.104;2024-03-23T10:10:25;96940.94;;;21.20;58.04
65227;BME280;51805;49.012;12.104;2024-03-23T10:12:50;96958.84;;;21.16;57.89
65227;BME280;51805;49.012;12.104;2024-03-23T10:15:23;96967.03;;;21.11;57.98
65227;BME280;51805;49.012;12.104;2024-03-23T10:17:49;96998.84;;;21.14;57.91
65227;BME280;51805;49.012;12.104;2024-03-23T10:20:23;96994.75;;;21.16;57.71
65227;BME280;51805;49.012;12.104;2024-03-23T10:22:50;96992.22;;;21.06;57.78
65227;BME280;51805;49.012;12.104;2024-03-23T10:25:15;97017.84;;;21.09;57.84
65227;BME280;51805;49.012;12.104;2024-03-23T10:27:41;97039.31;;;21.19;57.53
65227;BME280;51805;49.012;12.104;2024-03-23T10:30:13;97051.19;;;21.18;57.53
65227;BME280;51805;49.012;12.104;2024-03-23T10:32:39;97068.22;;;21.18;57.35
65227;BME280;51805;49.012;12.104;2024-03-23T10:35:18;97059.31;;;21.18;57.27
65227;BME280;51805;49.012;12.104;2024-03-23T10:37:44;97061.56;;;21.11;57.14
65227;BME280;51805;49.012;12.104;2024-03-23T10:40:10;97062.00;;;21.18;57.01
65227;BME280;51805;49.012;12.104;2024-03-23T10:42:37;97055.53;;;21.19;56.96
65227;BME280;51805;49.012;12.104;2024-03-23T10:45:04;97074.94;;;21.21;56.84
65227;BME280;51805;49.012;12.104;2024-03-23T10:47:29;97065.75;;;21.22;56.98
65227;BME280;51805;49.012;12.104;2024-03-23T10:49:55;97075.44;;;21.23;56.79
65227;BME280;51805;49.012;12.104;2024-03-23T10:52:20;97071.72;;;21.19;56.85
65227;BME280;51805;49.012;12.104;2024-03-23T10:54:47;97069.22;;;21.22;56.78
65227;BME280;51805;49.012;12.104;2024-03-23T10:57:17;97077.63;;;21.21;56.40
65227;BME280;51805;49.012;12.104;2024-03-23T10:59:44;97063.63;;;21.19;56.44
65227;BME280;51805;49.012;12.104;2024-03-23T11:02:19;97099.19;;;21.26;56.50
65227;BME280;51805;49.012;12.104;2024-03-23T11:04:45;97082.97;;;21.26;56.48
65227;BME280;51805;49.012;12.104;2024-03-23T11:07:30;97073.25;;;21.25;56.43
65227;BME280;51805;49.012;12.104;2024-03-23T11:09:55;97075.22;;;21.19;56.18
65227;BME280;51805;49.012;12.104;2024-03-23T11:17:25;97081.44;;;21.20;56.28
65227;BME280;51805;49.012;12.104;2024-03-23T11:20:02;97071.94;;;21.22;56.05
65227;BME280;51805;49.012;12.104;2024-03-23T11:25:02;97057.69;;;21.17;56.04
65227;BME280;51805;49.012;12.104;2024-03-23T11:27:27;97080.91;;;21.18;55.90
65227;BME280;51805;49.012;12.104;2024-03-23T11:29:52;97088.25;;;21.17;56.01
65227;BME280;51805;49.012;12.104;2024-03-23T11:32:18;97092.81;;;21.17;55.97
65227;BME280;51805;49.012;12.104;2024-03-23T11:34:43;97090.66;;;21.19;55.83
65227;BME280;51805;49.012;12.104;2024-03-23T11:37:08;97103.28;;;21.23;55.66
65227;BME280;51805;49.012;12.104;2024-03-23T11:39:34;97110.63;;;21.18;55.72
65227;BME280;51805;49.012;12.104;2024-03-23T11:41:59;97110.84;;;21.03;55.44
65227;BME280;51805;49.012;12.104;2024-03-23T11:44:27;97125.47;;;21.20;55.54
65227;BME280;51805;49.012;12.104;2024-03-23T11:46:53;97143.53;;;21.25;55.30
65227;BME280;51805;49.012;12.104;2024-03-23T11:49:28;97147.53;;;21.27;55.62
65227;BME280;51805;49.012;12.104;2024-03-23T11:51:55;97140.59;;;21.21;55.45
65227;BME280;51805;49.012;12.104;2024-03-23T11:54:25;97152.94;;;21.27;55.79
65227;BME280;51805;49.012;12.104;2024-03-23T11:56:57;97157.53;;;21.27;55.46
65227;BME280;51805;49.012;12.104;2024-03-23T11:59:40;97132.47;;;21.21;55.41
65227;BME280;51805;49.012;12.104;2024-03-23T12:02:12;97138.91;;;21.25;55.21
65227;BME280;51805;49.012;12.104;2024-03-23T12:04:39;97141.03;;;21.28;55.23
65227;BME280;51805;49.012;12.104;2024-03-23T12:07:30;97138.69;;;21.22;55.33
65227;BME280;51805;49.012;12.104;2024-03-23T12:10:03;97158.63;;;21.26;55.30
65227;BME280;51805;49.012;12.104;2024-03-23T12:12:28;97149.50;;;21.22;55.07
65227;BME280;51805;49.012;12.104;2024-03-23T12:15:07;97155.94;;;21.26;55.31
65227;BME280;51805;49.012;12.104;2024-03-23T12:17:32;97143.81;;;21.23;55.31
65227;BME280;51805;49.012;12.104;2024-03-23T12:19:58;97131.09;;;21.24;55.02
65227;BME280;51805;49.012;12.104;2024-03-23T12:22:24;97129.44;;;21.28;55.23
65227;BME280;51805;49.012;12.104;2024-03-23T12:24:49;97088.78;;;21.14;54.84
65227;BME280;51805;49.012;12.104;2024-03-23T12:27:15;97121.63;;;21.26;54.77
65227;BME280;51805;49.012;12.104;2024-03-23T12:29:41;97136.50;;;21.24;54.77
65227;BME280;51805;49.012;12.104;2024-03-23T12:32:06;97124.91;;;21.23;54.75
65227;BME280;51805;49.012;12.104;2024-03-23T12:34:31;97145.13;;;21.26;54.71
65227;BME280;51805;49.012;12.104;2024-03-23T12:36:57;97144.09;;;21.22;54.55
65227;BME280;51805;49.012;12.104;2024-03-23T12:39:22;97142.47;;;21.21;54.47
65227;BME280;51805;49.012;12.104;2024-03-23T12:41:48;97146.28;;;21.20;54.61
65227;BME280;51805;49.012;12.104;2024-03-23T12:44:14;97152.69;;;21.24;54.77
65227;BME280;51805;49.012;12.104;2024-03-23T12:46:39;97150.09;;;21.19;54.49
65227;BME280;51805;49.012;12.104;2024-03-23T12:49:05;97152.22;;;21.22;54.65
65227;BME280;51805;49.012;12.104;2024-03-23T12:51:30;97153.28;;;21.21;54.33
65227;BME280;51805;49.012;12.104;2024-03-23T12:53:55;97160.31;;;21.22;54.08
65227;BME280;51805;49.012;12.104;2024-03-23T12:56:20;97148.47;;;21.18;54.34
65227;BME280;51805;49.012;12.104;2024-03-23T12:58:46;97146.88;;;21.17;54.01
65227;BME280;51805;49.012;12.104;2024-03-23T13:01:11;97162.78;;;21.18;54.16
65227;BME280;51805;49.012;12.104;2024-03-23T13:03:36;97156.56;;;21.18;54.29
65227;BME280;51805;49.012;12.104;2024-03-23T13:06:01;97128.25;;;21.15;54.17
65227;BME280;51805;49.012;12.104;2024-03-23T13:08:27;97126.56;;;21.19;54.23
65227;BME280;51805;49.012;12.104;2024-03-23T13:10:52;97135.47;;;21.20;54.12
65227;BME280;51805;49.012;12.104;2024-03-23T13:13:18;97121.69;;;21.21;53.74
65227;BME280;51805;49.012;12.104;2024-03-23T13:15:52;97119.84;;;21.17;53.75
65227;BME280;51805;49.012;12.104;2024-03-23T13:18:17;97131.47;;;21.17;54.17
65227;BME280;51805;49.012;12.104;2024-03-23T13:20:42;97138.47;;;21.18;54.14
65227;BME280;51805;49.012;12.104;2024-03-23T13:23:08;97143.06;;;21.18;54.08
65227;BME280;51805;49.012;12.104;2024-03-23T13:25:33;97143.88;;;21.18;53.90
65227;BME280;51805;49.012;12.104;2024-03-23T13:27:58;97143.59;;;21.20;54.08
65227;BME280;51805;49.012;12.104;2024-03-23T13:30:24;97151.97;;;21.18;53.99
65227;BME280;51805;49.012;12.104;2024-03-23T13:32:49;97147.97;;;21.16;53.77
65227;BME280;51805;49.012;12.104;2024-03-23T13:35:14;97148.16;;;21.19;53.82
65227;BME280;51805;49.012;12.104;2024-03-23T13:37:40;97145.28;;;21.16;53.75
65227;BME280;51805;49.012;12.104;2024-03-23T13:40:06;97147.69;;;21.17;53.64
65227;BME280;51805;49.012;12.104;2024-03-23T13:42:31;97145.03;;;21.12;53.79
65227;BME280;51805;49.012;12.104;2024-03-23T13:44:57;97153.63;;;21.14;54.07